Terminal Aerodrome Forecast
Issued by NWS Amarillo, TX

Home | Current Version | Previous Version | Text Only | Print | Product List | Glossary On
Versions: 1 2 3 4 5 6 7 8 9 10 11 12 13 14 15 16 17 18 19
000
FTUS44 KAMA 200800 AAA
TAFDHT
TAF AMD
KDHT 200810Z 2008/2106 20006KT 4SM BR OVC012
     FM201600 14008KT P6SM BKN025
     FM201800 14010KT P6SM BKN050=

USA.gov is the U.S. government's official web portal to all federal, state and local government web resources and services.